Time;durP1;ratioP1;P1;durP2;ratioP2;P2;SDS_P1;SDS_P2;PMS_P1;PMS_P2;Temp;Humidity;BMP_temperature;BMP_pressure;BME280_temperature;BME280_humidity;BME280_pressure;Samples;Min_cycle;Max_cycle;Signal;HPM_P1;HPM_P2
2023/07/21 00:01:28;;;;;;;;;;;15.50;74.60;;;;;;4973565;28;19969;-76
2023/07/21 00:03:53;;;;;;;;;;;15.50;74.60;;;;;;4973570;28;20007;-76
2023/07/21 00:06:19;;;;;;;;;;;15.50;74.60;;;;;;4973237;28;20009;-76
2023/07/21 00:08:45;;;;;;;;;;;15.50;74.60;;;;;;4973387;28;19922;-76
2023/07/21 00:11:11;;;;;;;;;;;15.50;74.70;;;;;;4973525;28;20384;-76
2023/07/21 00:13:36;;;;;;;;;;;15.50;74.60;;;;;;4973025;28;19914;-76
2023/07/21 00:16:03;;;;;;;;;;;15.50;74.60;;;;;;4973247;28;20366;-76
2023/07/21 00:18:30;;;;;;;;;;;15.50;74.50;;;;;;4940191;28;20109;-77
2023/07/21 00:20:55;;;;;;;;;;;15.40;74.50;;;;;;4973383;28;19914;-77
2023/07/21 00:23:22;;;;;;;;;;;15.50;74.60;;;;;;4977404;28;20366;-76
2023/07/21 00:25:48;;;;;;;;;;;15.50;74.60;;;;;;4973337;28;19914;-76
2023/07/21 00:28:14;;;;;;;;;;;15.50;74.60;;;;;;4972843;28;19960;-76
2023/07/21 00:30:39;;;;;;;;;;;15.50;74.60;;;;;;4956432;28;20016;-77
2023/07/21 00:33:05;;;;;;;;;;;15.50;74.50;;;;;;4972992;28;19910;-76
2023/07/21 00:35:31;;;;;;;;;;;15.50;74.50;;;;;;4973677;28;20366;-77
2023/07/21 00:38:01;;;;;;;;;;;15.60;74.50;;;;;;4972822;28;19914;-76
2023/07/21 00:40:27;;;;;;;;;;;15.50;74.50;;;;;;4955364;28;19941;-77
2023/07/21 00:42:52;;;;;;;;;;;15.50;74.40;;;;;;4955369;28;19910;-76
2023/07/21 00:45:18;;;;;;;;;;;15.50;74.40;;;;;;4972805;28;19917;-77
2023/07/21 00:47:44;;;;;;;;;;;15.50;74.40;;;;;;4972851;28;19933;-77
2023/07/21 00:50:10;;;;;;;;;;;15.40;74.40;;;;;;4939339;28;20021;-77
2023/07/21 00:52:36;;;;;;;;;;;15.40;74.50;;;;;;4955190;28;19911;-77
2023/07/21 00:55:02;;;;;;;;;;;15.40;74.50;;;;;;4955568;28;19911;-76
2023/07/21 00:57:28;;;;;;;;;;;15.30;74.40;;;;;;4955119;28;20272;-76
2023/07/21 00:59:54;;;;;;;;;;;15.30;74.40;;;;;;4939669;28;19973;-76
2023/07/21 01:02:20;;;;;;;;;;;15.30;74.40;;;;;;4972417;28;19919;-76
2023/07/21 01:04:46;;;;;;;;;;;15.20;74.40;;;;;;4954664;28;19921;-76
2023/07/21 01:07:13;;;;;;;;;;;15.20;74.50;;;;;;4972079;28;20004;-76
2023/07/21 01:09:39;;;;;;;;;;;15.20;74.50;;;;;;4939287;28;19914;-76
2023/07/21 01:12:06;;;;;;;;;;;15.20;74.60;;;;;;4972596;28;20206;-76
2023/07/21 01:14:33;;;;;;;;;;;15.20;74.70;;;;;;4972418;28;19965;-76
2023/07/21 01:17:00;;;;;;;;;;;15.20;74.70;;;;;;4972320;28;19911;-76
2023/07/21 01:19:28;;;;;;;;;;;15.30;74.70;;;;;;4972152;28;19914;-76
2023/07/21 01:22:00;;;;;;;;;;;15.30;74.70;;;;;;4972118;28;19921;-76
2023/07/21 01:24:48;;;;;;;;;;;15.40;74.80;;;;;;4954929;28;19918;-76
2023/07/21 01:27:15;;;;;;;;;;;15.40;74.80;;;;;;4938783;28;20013;-76
2023/07/21 01:29:42;;;;;;;;;;;15.40;74.80;;;;;;4971931;28;20012;-77
2023/07/21 01:32:09;;;;;;;;;;;15.50;74.80;;;;;;4971999;28;19910;-78
2023/07/21 01:34:35;;;;;;;;;;;15.50;74.90;;;;;;4954315;28;19914;-78
2023/07/21 01:37:01;;;;;;;;;;;15.60;74.80;;;;;;4971380;28;19910;-78
2023/07/21 01:39:27;;;;;;;;;;;15.50;74.80;;;;;;4971378;28;19918;-78
2023/07/21 01:41:54;;;;;;;;;;;15.60;74.80;;;;;;4953909;28;20000;-78
2023/07/21 01:44:23;;;;;;;;;;;15.60;74.70;;;;;;4971400;28;19914;-78
2023/07/21 01:46:48;;;;;;;;;;;15.60;74.70;;;;;;4971118;28;19919;-78
2023/07/21 01:49:15;;;;;;;;;;;15.60;74.70;;;;;;4971442;28;19911;-78
2023/07/21 01:51:41;;;;;;;;;;;15.60;74.70;;;;;;4971187;28;20334;-78
2023/07/21 01:54:11;;;;;;;;;;;15.60;74.70;;;;;;4971261;28;19910;-78
2023/07/21 01:56:46;;;;;;;;;;;15.50;74.60;;;;;;4954502;28;19914;-78
2023/07/21 01:59:12;;;;;;;;;;;15.50;74.60;;;;;;4966273;28;19910;-78
2023/07/21 02:01:38;;;;;;;;;;;15.40;74.50;;;;;;4955264;28;19921;-78
2023/07/21 02:04:04;;;;;;;;;;;15.40;74.70;;;;;;4971025;28;20256;-78
2023/07/21 02:06:31;;;;;;;;;;;15.30;74.70;;;;;;4970862;28;19922;-78
2023/07/21 02:08:57;;;;;;;;;;;15.30;74.80;;;;;;4953726;28;19921;-78
2023/07/21 02:11:22;;;;;;;;;;;15.30;74.80;;;;;;4970693;28;19910;-77
2023/07/21 02:13:49;;;;;;;;;;;15.30;74.80;;;;;;4970976;28;20286;-78
2023/07/21 02:16:15;;;;;;;;;;;15.40;74.90;;;;;;4952774;28;20406;-78
2023/07/21 02:18:41;;;;;;;;;;;15.40;74.80;;;;;;4970807;28;20000;-78
2023/07/21 02:21:07;;;;;;;;;;;15.40;74.80;;;;;;4970632;28;20271;-78
2023/07/21 02:23:32;;;;;;;;;;;15.40;74.70;;;;;;4970726;28;19925;-77
2023/07/21 02:25:58;;;;;;;;;;;15.30;74.60;;;;;;4953234;28;19917;-78
2023/07/21 02:28:24;;;;;;;;;;;15.30;74.70;;;;;;4970365;28;20278;-77
2023/07/21 02:30:57;;;;;;;;;;;15.30;74.60;;;;;;4953182;28;20015;-78
2023/07/21 02:33:22;;;;;;;;;;;15.20;74.60;;;;;;4970320;28;19914;-78
2023/07/21 02:35:48;;;;;;;;;;;15.10;74.70;;;;;;4952987;28;20386;-78
2023/07/21 02:38:13;;;;;;;;;;;15.10;74.80;;;;;;4970303;28;19968;-78
2023/07/21 02:40:39;;;;;;;;;;;15.10;74.80;;;;;;4970214;28;19969;-78
2023/07/21 02:43:04;;;;;;;;;;;15.20;74.80;;;;;;4936943;28;19914;-78
2023/07/21 02:45:30;;;;;;;;;;;15.10;74.70;;;;;;4970149;28;19916;-77
2023/07/21 02:47:55;;;;;;;;;;;15.10;74.60;;;;;;4969938;28;19961;-78
2023/07/21 02:50:23;;;;;;;;;;;15.00;74.50;;;;;;4970203;28;19926;-78
2023/07/21 02:52:48;;;;;;;;;;;15.00;74.50;;;;;;4952903;28;20005;-78
2023/07/21 02:55:14;;;;;;;;;;;14.90;74.60;;;;;;4969871;28;20017;-77
2023/07/21 02:57:39;;;;;;;;;;;14.80;74.60;;;;;;4969983;28;19918;-78
2023/07/21 03:00:05;;;;;;;;;;;14.70;74.60;;;;;;4969846;28;19922;-78
2023/07/21 03:02:34;;;;;;;;;;;14.70;74.60;;;;;;4970065;28;19914;-78
2023/07/21 03:05:05;;;;;;;;;;;14.70;74.60;;;;;;4969939;28;19965;-78
2023/07/21 03:07:31;;;;;;;;;;;14.60;74.50;;;;;;4952367;28;19916;-79
2023/07/21 03:09:56;;;;;;;;;;;14.60;74.60;;;;;;4952560;28;20385;-78
2023/07/21 03:12:22;;;;;;;;;;;14.50;74.60;;;;;;4969751;28;19921;-78
2023/07/21 03:14:48;;;;;;;;;;;14.50;74.60;;;;;;4969878;28;19957;-78
2023/07/21 03:17:14;;;;;;;;;;;14.40;74.60;;;;;;4969874;28;19988;-77
2023/07/21 03:19:40;;;;;;;;;;;14.40;74.70;;;;;;4969582;28;20325;-78
2023/07/21 03:22:05;;;;;;;;;;;14.40;74.70;;;;;;4952295;28;19915;-78
2023/07/21 03:24:34;;;;;;;;;;;14.40;74.80;;;;;;4969491;28;19914;-78
2023/07/21 03:27:00;;;;;;;;;;;14.40;74.80;;;;;;4969433;28;19918;-78
2023/07/21 03:29:25;;;;;;;;;;;14.30;74.70;;;;;;4969291;28;19929;-78
2023/07/21 03:31:51;;;;;;;;;;;14.30;74.70;;;;;;4969551;28;19917;-78
2023/07/21 03:34:17;;;;;;;;;;;14.30;74.60;;;;;;4952197;28;19925;-78
2023/07/21 03:36:42;;;;;;;;;;;14.30;74.70;;;;;;4936096;28;19915;-78
2023/07/21 03:39:08;;;;;;;;;;;14.30;74.70;;;;;;4969475;28;20339;-78
2023/07/21 03:41:33;;;;;;;;;;;14.20;74.60;;;;;;4969415;28;19976;-78
2023/07/21 03:44:00;;;;;;;;;;;14.20;74.70;;;;;;4970747;28;20310;-79
2023/07/21 03:46:25;;;;;;;;;;;14.20;74.70;;;;;;4953543;28;19918;-78
2023/07/21 03:48:51;;;;;;;;;;;14.20;74.80;;;;;;4969797;28;20295;-78
2023/07/21 03:51:16;;;;;;;;;;;14.30;74.90;;;;;;4952229;28;19944;-79
2023/07/21 03:53:42;;;;;;;;;;;14.40;74.90;;;;;;4969704;28;19954;-79
2023/07/21 03:56:07;;;;;;;;;;;14.40;74.80;;;;;;4935809;28;19914;-78
2023/07/21 03:58:33;;;;;;;;;;;14.50;74.90;;;;;;4951884;28;19914;-78
2023/07/21 04:00:59;;;;;;;;;;;14.50;74.90;;;;;;4969092;28;20059;-75
2023/07/21 04:03:25;;;;;;;;;;;14.50;74.90;;;;;;4969010;28;19953;-75
2023/07/21 04:05:53;;;;;;;;;;;14.60;74.90;;;;;;4968971;28;19910;-75
2023/07/21 04:08:19;;;;;;;;;;;14.60;74.80;;;;;;4968933;28;19910;-75
2023/07/21 04:10:45;;;;;;;;;;;14.70;74.80;;;;;;4969040;28;20540;-75
2023/07/21 04:13:10;;;;;;;;;;;14.70;74.70;;;;;;4969121;28;19914;-75
2023/07/21 04:15:36;;;;;;;;;;;14.70;74.70;;;;;;4951733;28;19919;-75
2023/07/21 04:18:02;;;;;;;;;;;14.70;74.70;;;;;;4951500;28;19930;-75
2023/07/21 04:20:30;;;;;;;;;;;14.80;74.80;;;;;;4968893;28;19977;-75
2023/07/21 04:22:56;;;;;;;;;;;14.70;74.60;;;;;;4968920;28;19981;-75
2023/07/21 04:25:22;;;;;;;;;;;14.70;74.70;;;;;;4968767;28;19914;-75
2023/07/21 04:27:50;;;;;;;;;;;14.70;74.70;;;;;;4951452;28;20362;-75
2023/07/21 04:30:19;;;;;;;;;;;14.70;74.70;;;;;;4951300;28;20334;-75
2023/07/21 04:32:45;;;;;;;;;;;14.70;74.70;;;;;;4968916;28;19957;-75
2023/07/21 04:35:10;;;;;;;;;;;14.60;74.70;;;;;;4968783;28;19949;-75
2023/07/21 04:37:36;;;;;;;;;;;14.60;74.70;;;;;;4951385;28;20293;-75
2023/07/21 04:40:04;;;;;;;;;;;14.60;74.70;;;;;;4970177;28;19915;-75
2023/07/21 04:42:29;;;;;;;;;;;14.60;74.80;;;;;;4954977;28;19914;-76
2023/07/21 04:44:55;;;;;;;;;;;14.60;74.80;;;;;;4954886;28;19910;-75
2023/07/21 04:47:22;;;;;;;;;;;14.60;74.80;;;;;;4972109;28;19917;-71
2023/07/21 04:49:48;;;;;;;;;;;14.60;74.80;;;;;;4972274;28;20359;-75
2023/07/21 04:52:14;;;;;;;;;;;14.60;74.80;;;;;;4971996;28;20437;-76
2023/07/21 04:54:39;;;;;;;;;;;14.60;74.80;;;;;;4972026;28;20018;-75
2023/07/21 04:57:05;;;;;;;;;;;14.60;74.80;;;;;;4954432;28;20389;-75
2023/07/21 04:59:31;;;;;;;;;;;14.60;74.80;;;;;;4954519;28;20259;-75
2023/07/21 05:01:56;;;;;;;;;;;14.60;74.80;;;;;;4938586;28;19918;-75
2023/07/21 05:04:22;;;;;;;;;;;14.60;74.80;;;;;;4954749;28;19919;-76
2023/07/21 05:06:48;;;;;;;;;;;14.50;74.80;;;;;;4971780;28;20107;-75
2023/07/21 05:09:14;;;;;;;;;;;14.50;74.90;;;;;;4955185;28;19910;-77
2023/07/21 05:11:40;;;;;;;;;;;14.60;74.90;;;;;;4954889;28;20346;-76
2023/07/21 05:14:06;;;;;;;;;;;14.60;74.90;;;;;;4972434;28;20279;-75
2023/07/21 05:16:37;;;;;;;;;;;14.60;74.90;;;;;;4954372;28;19917;-74
2023/07/21 05:19:03;;;;;;;;;;;14.70;74.90;;;;;;4971801;28;19910;-75
2023/07/21 05:21:29;;;;;;;;;;;14.60;74.80;;;;;;4971437;28;20560;-76
2023/07/21 05:23:54;;;;;;;;;;;14.60;74.80;;;;;;4971492;28;20330;-76
2023/07/21 05:26:24;;;;;;;;;;;14.60;74.90;;;;;;4971465;28;20286;-76
2023/07/21 05:28:54;;;;;;;;;;;14.60;74.80;;;;;;4971134;28;20414;-76
2023/07/21 05:31:20;;;;;;;;;;;14.70;74.90;;;;;;4938553;28;20418;-76
2023/07/21 05:33:45;;;;;;;;;;;14.70;74.90;;;;;;4971453;28;20009;-71
2023/07/21 05:36:11;;;;;;;;;;;14.70;74.90;;;;;;4971175;28;19938;-74
2023/07/21 05:38:37;;;;;;;;;;;14.70;75.00;;;;;;4971200;28;20362;-69
2023/07/21 05:41:03;;;;;;;;;;;14.70;74.90;;;;;;4971000;28;19920;-68
2023/07/21 05:43:29;;;;;;;;;;;14.70;74.90;;;;;;4953678;28;20004;-70
2023/07/21 05:45:54;;;;;;;;;;;14.70;74.80;;;;;;4971126;28;19977;-75
2023/07/21 05:48:21;;;;;;;;;;;14.80;74.90;;;;;;4970953;28;20017;-75
2023/07/21 05:50:47;;;;;;;;;;;14.80;75.00;;;;;;4969991;28;19973;-75
2023/07/21 05:53:12;;;;;;;;;;;14.80;75.00;;;;;;4953498;28;20338;-75
2023/07/21 05:55:42;;;;;;;;;;;14.90;74.90;;;;;;4970835;28;19922;-75
2023/07/21 05:58:08;;;;;;;;;;;14.90;75.00;;;;;;4970854;28;19914;-75
2023/07/21 06:00:38;;;;;;;;;;;14.90;75.00;;;;;;4970645;28;19970;-76
2023/07/21 06:03:07;;;;;;;;;;;15.00;75.00;;;;;;4971290;28;19922;-76
2023/07/21 06:05:36;;;;;;;;;;;15.00;75.00;;;;;;4970528;28;19969;-76
2023/07/21 06:08:05;;;;;;;;;;;15.00;75.00;;;;;;4970843;28;19924;-76
2023/07/21 06:10:31;;;;;;;;;;;15.10;75.00;;;;;;4970402;28;19968;-74
2023/07/21 06:12:56;;;;;;;;;;;15.10;75.00;;;;;;4953311;28;19918;-74
2023/07/21 06:15:24;;;;;;;;;;;15.20;75.00;;;;;;4970552;28;19921;-75
2023/07/21 06:17:50;;;;;;;;;;;15.20;75.00;;;;;;4953409;28;19919;-74
2023/07/21 06:20:15;;;;;;;;;;;15.20;75.00;;;;;;4952922;28;19914;-75
2023/07/21 06:22:41;;;;;;;;;;;15.30;75.10;;;;;;4970308;28;19977;-75
2023/07/21 06:25:07;;;;;;;;;;;15.30;75.10;;;;;;4952977;28;19910;-74
2023/07/21 06:27:32;;;;;;;;;;;15.30;75.30;;;;;;4970153;28;20378;-75
2023/07/21 06:29:58;;;;;;;;;;;15.30;75.00;;;;;;4952769;28;19926;-74
2023/07/21 06:32:23;;;;;;;;;;;15.30;75.00;;;;;;4952806;28;19925;-75
2023/07/21 06:34:49;;;;;;;;;;;15.40;75.00;;;;;;4969949;28;19918;-74
2023/07/21 06:37:15;;;;;;;;;;;15.40;75.10;;;;;;4969912;28;19956;-75
2023/07/21 06:39:41;;;;;;;;;;;15.40;75.00;;;;;;4969646;28;19953;-74
2023/07/21 06:42:07;;;;;;;;;;;15.40;75.00;;;;;;4969976;28;19950;-74
2023/07/21 06:44:34;;;;;;;;;;;15.40;75.00;;;;;;4970168;28;19914;-75
2023/07/21 06:47:00;;;;;;;;;;;15.40;75.00;;;;;;4969792;28;20009;-75
2023/07/21 06:49:25;;;;;;;;;;;15.50;75.10;;;;;;4952723;28;20000;-75
2023/07/21 06:51:52;;;;;;;;;;;15.50;75.10;;;;;;4953069;28;19910;-75
2023/07/21 06:54:18;;;;;;;;;;;15.60;75.20;;;;;;4969894;28;19942;-75
2023/07/21 06:56:43;;;;;;;;;;;15.70;75.20;;;;;;4952322;28;19918;-75
2023/07/21 06:59:09;;;;;;;;;;;15.70;75.20;;;;;;4936025;28;19973;-75
2023/07/21 07:01:35;;;;;;;;;;;15.80;75.10;;;;;;4951884;28;19988;-75
2023/07/21 07:04:00;;;;;;;;;;;15.90;75.10;;;;;;4952060;28;19918;-76
2023/07/21 07:06:28;;;;;;;;;;;15.90;75.20;;;;;;4952329;28;20271;-75
2023/07/21 07:08:54;;;;;;;;;;;16.00;75.20;;;;;;4969613;28;19918;-75
2023/07/21 07:11:20;;;;;;;;;;;16.20;75.30;;;;;;4969375;28;20263;-75
2023/07/21 07:13:45;;;;;;;;;;;16.30;75.20;;;;;;4969504;28;19918;-75
2023/07/21 07:16:11;;;;;;;;;;;16.50;75.20;;;;;;4969385;28;19957;-76
2023/07/21 07:18:37;;;;;;;;;;;16.60;75.10;;;;;;4969486;28;20367;-76
2023/07/21 07:21:03;;;;;;;;;;;16.80;75.20;;;;;;4951906;28;19919;-76
2023/07/21 07:23:29;;;;;;;;;;;16.90;75.10;;;;;;4952210;28;19920;-76
2023/07/21 07:25:54;;;;;;;;;;;17.00;75.00;;;;;;4969272;28;20390;-75
2023/07/21 07:28:20;;;;;;;;;;;17.10;75.00;;;;;;4951888;28;19918;-76
2023/07/21 07:30:46;;;;;;;;;;;17.20;75.10;;;;;;4968811;28;19922;-76
2023/07/21 07:33:14;;;;;;;;;;;17.30;75.10;;;;;;4951554;28;19921;-75
2023/07/21 07:35:49;;;;;;;;;;;17.50;75.10;;;;;;4968709;28;19918;-76
2023/07/21 07:38:19;;;;;;;;;;;17.70;75.10;;;;;;4968495;28;19910;-77
2023/07/21 07:40:46;;;;;;;;;;;17.90;75.20;;;;;;4968599;28;19914;-74
2023/07/21 07:43:11;;;;;;;;;;;18.10;75.10;;;;;;4968654;28;19914;-74
2023/07/21 07:45:37;;;;;;;;;;;18.20;75.00;;;;;;4968967;28;20419;-75
2023/07/21 07:48:03;;;;;;;;;;;18.30;75.00;;;;;;4968403;28;19914;-74
2023/07/21 07:50:28;;;;;;;;;;;18.40;74.90;;;;;;4968763;28;20001;-75
2023/07/21 07:52:54;;;;;;;;;;;18.70;75.10;;;;;;4968675;28;19922;-74
2023/07/21 07:55:20;;;;;;;;;;;19.10;75.20;;;;;;4951403;28;20051;-73
2023/07/21 07:57:46;;;;;;;;;;;19.60;75.10;;;;;;4951043;28;20005;-75
2023/07/21 08:00:14;;;;;;;;;;;19.80;74.70;;;;;;4951736;28;20032;-75
2023/07/21 08:02:39;;;;;;;;;;;19.90;74.50;;;;;;4951345;28;19977;-75
2023/07/21 08:05:05;;;;;;;;;;;20.00;74.40;;;;;;4968407;28;20279;-74
2023/07/21 08:07:31;;;;;;;;;;;20.10;74.30;;;;;;4968402;28;19911;-75
2023/07/21 08:09:57;;;;;;;;;;;20.10;74.50;;;;;;4951298;28;20345;-75
2023/07/21 08:12:23;;;;;;;;;;;20.30;74.70;;;;;;4951252;28;20009;-75
2023/07/21 08:14:48;;;;;;;;;;;20.60;74.90;;;;;;4969868;28;19918;-75
2023/07/21 08:17:14;;;;;;;;;;;21.00;74.90;;;;;;4972568;28;19921;-75
2023/07/21 08:19:41;;;;;;;;;;;21.40;74.70;;;;;;4972685;28;20291;-75
2023/07/21 08:22:06;;;;;;;;;;;21.70;74.50;;;;;;4939079;28;19918;-75
2023/07/21 08:24:32;;;;;;;;;;;22.30;74.90;;;;;;4972406;28;19969;-76
2023/07/21 08:27:02;;;;;;;;;;;23.30;75.30;;;;;;4954809;28;19914;-76
2023/07/21 08:29:28;;;;;;;;;;;24.60;75.10;;;;;;4956089;28;19927;-75
2023/07/21 08:31:54;;;;;;;;;;;25.50;74.20;;;;;;4954683;28;19921;-76
2023/07/21 08:34:20;;;;;;;;;;;25.70;73.50;;;;;;4972008;28;19914;-75
2023/07/21 08:36:45;;;;;;;;;;;25.60;73.40;;;;;;4969150;28;19922;-75
2023/07/21 08:39:11;;;;;;;;;;;25.40;73.60;;;;;;4972490;28;20376;-75
2023/07/21 08:41:40;;;;;;;;;;;25.30;73.80;;;;;;4955110;28;20337;-75
2023/07/21 08:44:06;;;;;;;;;;;25.10;74.30;;;;;;4972284;28;19918;-75
2023/07/21 08:46:32;;;;;;;;;;;25.20;74.50;;;;;;4972113;28;20378;-75
2023/07/21 08:49:00;;;;;;;;;;;25.10;73.90;;;;;;4972109;28;20002;-70
2023/07/21 08:51:25;;;;;;;;;;;24.80;74.30;;;;;;4972520;28;19929;-74
2023/07/21 08:53:51;;;;;;;;;;;24.80;75.30;;;;;;4972186;28;20001;-76
2023/07/21 08:56:17;;;;;;;;;;;24.90;74.90;;;;;;4972351;28;20371;-76
2023/07/21 08:58:43;;;;;;;;;;;24.90;74.50;;;;;;4971658;28;20347;-75
2023/07/21 09:01:09;;;;;;;;;;;24.50;74.10;;;;;;4976085;28;19978;-76
2023/07/21 09:03:34;;;;;;;;;;;24.00;74.20;;;;;;4972270;28;19989;-76
2023/07/21 09:06:01;;;;;;;;;;;23.90;75.10;;;;;;4971753;28;19915;-76
2023/07/21 09:08:28;;;;;;;;;;;24.20;75.80;;;;;;4971245;28;19936;-75
2023/07/21 09:10:58;;;;;;;;;;;24.80;76.20;;;;;;4954296;28;19914;-76
2023/07/21 09:13:25;;;;;;;;;;;25.70;76.00;;;;;;4971760;28;20000;-74
2023/07/21 09:15:52;;;;;;;;;;;25.80;74.70;;;;;;4966483;28;19945;-74
2023/07/21 09:18:17;;;;;;;;;;;25.30;74.80;;;;;;4979731;28;19918;-74
2023/07/21 09:20:47;;;;;;;;;;;24.80;74.80;;;;;;4971311;28;19918;-75
2023/07/21 09:23:13;;;;;;;;;;;24.40;75.00;;;;;;4966415;28;19918;-75
2023/07/21 09:25:47;;;;;;;;;;;24.10;75.40;;;;;;4971542;28;19964;-75
2023/07/21 09:28:13;;;;;;;;;;;23.80;75.40;;;;;;4969325;28;19914;-75
2023/07/21 09:30:47;;;;;;;;;;;23.40;75.00;;;;;;4962446;28;20532;-75
2023/07/21 09:33:13;;;;;;;;;;;22.80;74.80;;;;;;4957606;28;19934;-75
2023/07/21 09:35:40;;;;;;;;;;;22.30;75.20;;;;;;4942964;28;20366;-76
2023/07/21 09:38:10;;;;;;;;;;;21.80;75.40;;;;;;4961791;28;20002;-75
2023/07/21 09:40:40;;;;;;;;;;;21.50;75.50;;;;;;4958188;28;19914;-75
2023/07/21 09:43:05;;;;;;;;;;;21.30;75.90;;;;;;4962312;28;19924;-75
2023/07/21 09:45:31;;;;;;;;;;;21.30;76.10;;;;;;4961615;28;20401;-75
2023/07/21 09:47:57;;;;;;;;;;;21.30;76.10;;;;;;4963304;28;19919;-75
2023/07/21 09:50:23;;;;;;;;;;;21.50;76.20;;;;;;4944588;28;20490;-75
2023/07/21 09:52:50;;;;;;;;;;;21.70;76.10;;;;;;4960891;28;19918;-74
2023/07/21 09:55:16;;;;;;;;;;;21.80;75.90;;;;;;4962421;28;19989;-76
2023/07/21 09:57:44;;;;;;;;;;;21.90;75.90;;;;;;4961823;28;19910;-73
2023/07/21 10:00:14;;;;;;;;;;;22.10;75.90;;;;;;4952155;28;19918;-74
2023/07/21 10:02:50;;;;;;;;;;;22.70;77.10;;;;;;4951849;29;19930;-76
2023/07/21 10:05:16;;;;;;;;;;;24.30;78.00;;;;;;4951861;29;19997;-76
2023/07/21 10:07:49;;;;;;;;;;;25.80;77.10;;;;;;4950812;29;20447;-75
2023/07/21 10:10:15;;;;;;;;;;;26.60;76.40;;;;;;4934139;29;20018;-75
2023/07/21 10:12:53;;;;;;;;;;;26.80;75.20;;;;;;4934305;29;20483;-75
2023/07/21 10:15:20;;;;;;;;;;;26.40;74.40;;;;;;4950949;29;20573;-76
2023/07/21 10:17:56;;;;;;;;;;;25.70;74.40;;;;;;4950925;29;19915;-75
2023/07/21 10:20:35;;;;;;;;;;;25.10;74.50;;;;;;4951114;29;19914;-75
2023/07/21 10:23:01;;;;;;;;;;;24.60;74.70;;;;;;4951024;29;20275;-75
2023/07/21 10:25:27;;;;;;;;;;;24.10;75.00;;;;;;4950839;29;19910;-74
2023/07/21 10:28:02;;;;;;;;;;;23.80;75.70;;;;;;4950645;28;19915;-75
2023/07/21 10:30:28;;;;;;;;;;;24.10;76.40;;;;;;4896987;28;2030481;-73
2023/07/21 10:32:53;;;;;;;;;;;24.70;76.90;;;;;;4970985;28;19918;-75
2023/07/21 10:35:37;;;;;;;;;;;25.70;77.30;;;;;;4971314;28;19918;-76
2023/07/21 10:38:24;;;;;;;;;;;26.60;76.50;;;;;;4953601;28;19921;-76
2023/07/21 10:40:50;;;;;;;;;;;26.80;75.90;;;;;;4953660;28;19940;-76
2023/07/21 10:43:15;;;;;;;;;;;27.10;75.60;;;;;;4954083;28;19914;-77
2023/07/21 10:45:41;;;;;;;;;;;27.00;75.20;;;;;;4954361;28;19923;-75
2023/07/21 10:48:13;;;;;;;;;;;26.60;74.70;;;;;;4970285;28;19923;-75
2023/07/21 10:50:40;;;;;;;;;;;26.00;74.50;;;;;;4970766;28;20555;-76
2023/07/21 10:53:05;;;;;;;;;;;25.50;74.80;;;;;;4971085;28;19918;-74
2023/07/21 10:55:31;;;;;;;;;;;25.30;75.20;;;;;;4970813;28;20345;-75
2023/07/21 10:57:57;;;;;;;;;;;25.20;75.80;;;;;;4952873;28;19914;-75
2023/07/21 11:00:22;;;;;;;;;;;25.40;76.20;;;;;;4969572;28;19964;-75
2023/07/21 11:02:54;;;;;;;;;;;25.80;76.60;;;;;;4952401;28;19937;-76
2023/07/21 11:05:22;;;;;;;;;;;26.30;76.40;;;;;;4970204;28;19922;-76
2023/07/21 11:07:48;;;;;;;;;;;26.20;75.10;;;;;;4960701;28;20259;-75
2023/07/21 11:10:14;;;;;;;;;;;25.80;74.50;;;;;;4969847;28;19918;-76
2023/07/21 11:12:40;;;;;;;;;;;25.20;74.50;;;;;;4969495;28;19921;-77
2023/07/21 11:15:08;;;;;;;;;;;24.70;74.60;;;;;;4969588;28;20348;-75
2023/07/21 11:17:34;;;;;;;;;;;24.30;74.90;;;;;;4969667;28;19915;-76
2023/07/21 11:20:06;;;;;;;;;;;24.10;75.40;;;;;;4969781;28;19918;-75
2023/07/21 11:22:33;;;;;;;;;;;24.10;75.90;;;;;;4967845;28;19916;-75
2023/07/21 11:25:10;;;;;;;;;;;24.40;76.60;;;;;;4970329;28;20281;-75
2023/07/21 11:27:42;;;;;;;;;;;24.50;75.70;;;;;;4969803;28;19969;-76
2023/07/21 11:30:08;;;;;;;;;;;24.20;75.00;;;;;;4969834;28;19982;-75
2023/07/21 11:32:34;;;;;;;;;;;23.80;74.90;;;;;;4970288;28;19973;-75
2023/07/21 11:35:03;;;;;;;;;;;23.50;75.00;;;;;;4972502;28;19917;-75
2023/07/21 11:37:44;;;;;;;;;;;23.30;75.50;;;;;;4970269;28;19914;-76
2023/07/21 11:40:29;;;;;;;;;;;23.40;75.90;;;;;;4969836;28;20001;-75
2023/07/21 11:42:56;;;;;;;;;;;23.60;75.80;;;;;;4952227;28;19933;-75
2023/07/21 11:45:33;;;;;;;;;;;23.80;75.60;;;;;;4969793;28;19914;-76
2023/07/21 11:47:58;;;;;;;;;;;24.00;75.50;;;;;;4969044;28;19918;-76
2023/07/21 11:50:24;;;;;;;;;;;24.10;75.20;;;;;;4968555;28;19982;-75
2023/07/21 11:52:49;;;;;;;;;;;24.00;74.90;;;;;;4969400;28;19953;-76
2023/07/21 11:55:15;;;;;;;;;;;23.80;74.90;;;;;;4977956;28;19932;-76
2023/07/21 11:57:41;;;;;;;;;;;23.70;75.00;;;;;;4951610;28;20026;-75
2023/07/21 12:00:12;;;;;;;;;;;23.50;75.00;;;;;;4969046;28;19918;-75
2023/07/21 12:02:39;;;;;;;;;;;23.30;74.90;;;;;;4952241;28;20362;-76
2023/07/21 12:05:05;;;;;;;;;;;23.20;75.10;;;;;;4969548;28;19910;-75
2023/07/21 12:07:31;;;;;;;;;;;23.10;75.20;;;;;;4969836;28;19915;-75
2023/07/21 12:09:58;;;;;;;;;;;23.10;75.30;;;;;;4952380;28;19921;-77
2023/07/21 12:12:24;;;;;;;;;;;23.20;75.40;;;;;;4948849;28;20301;-74
2023/07/21 12:14:49;;;;;;;;;;;23.20;75.30;;;;;;4958784;28;20009;-75
2023/07/21 12:17:15;;;;;;;;;;;23.30;75.30;;;;;;4932882;29;20399;-75
2023/07/21 12:19:40;;;;;;;;;;;23.30;75.30;;;;;;4965700;28;19922;-75
2023/07/21 12:22:07;;;;;;;;;;;23.50;75.50;;;;;;4969433;28;19925;-76
2023/07/21 12:24:33;;;;;;;;;;;23.70;75.50;;;;;;4969315;28;19969;-76
2023/07/21 12:26:58;;;;;;;;;;;24.10;75.60;;;;;;4969256;28;19918;-75
2023/07/21 12:29:24;;;;;;;;;;;24.40;75.30;;;;;;4937883;29;19958;-76
2023/07/21 12:31:49;;;;;;;;;;;24.60;75.20;;;;;;4932970;29;20025;-75
2023/07/21 12:34:15;;;;;;;;;;;24.80;75.30;;;;;;4933265;29;19921;-76
2023/07/21 12:36:41;;;;;;;;;;;25.00;75.50;;;;;;4932094;29;19993;-75
2023/07/21 12:39:10;;;;;;;;;;;25.30;75.50;;;;;;4932248;29;20507;-75
2023/07/21 12:41:38;;;;;;;;;;;25.50;75.10;;;;;;4948616;29;20002;-75
2023/07/21 12:44:04;;;;;;;;;;;25.60;75.00;;;;;;4949117;29;20003;-75
2023/07/21 12:46:30;;;;;;;;;;;25.70;75.20;;;;;;4949638;28;19919;-75
2023/07/21 12:48:55;;;;;;;;;;;25.90;75.80;;;;;;4949727;29;20504;-75
2023/07/21 12:51:21;;;;;;;;;;;26.30;76.10;;;;;;4932289;29;19918;-75
2023/07/21 12:53:47;;;;;;;;;;;26.80;76.10;;;;;;4949368;29;20398;-75
2023/07/21 12:56:12;;;;;;;;;;;27.20;76.00;;;;;;4949577;28;19914;-76
2023/07/21 12:58:38;;;;;;;;;;;27.20;75.30;;;;;;4949628;29;19938;-75
2023/07/21 13:01:05;;;;;;;;;;;27.10;74.80;;;;;;4933634;29;19918;-75
2023/07/21 13:03:30;;;;;;;;;;;27.00;74.90;;;;;;4936115;29;19911;-75
2023/07/21 13:05:56;;;;;;;;;;;26.80;75.00;;;;;;4935599;29;20367;-75
2023/07/21 13:08:21;;;;;;;;;;;26.60;74.80;;;;;;4953218;28;19936;-75
2023/07/21 13:10:47;;;;;;;;;;;26.40;75.00;;;;;;4953020;29;19915;-75
2023/07/21 13:13:13;;;;;;;;;;;26.20;75.00;;;;;;4953770;29;19945;-75
2023/07/21 13:15:38;;;;;;;;;;;26.00;75.00;;;;;;4953537;29;20036;-75
2023/07/21 13:18:04;;;;;;;;;;;25.90;75.20;;;;;;4951933;28;19919;-74
2023/07/21 13:20:30;;;;;;;;;;;25.70;75.00;;;;;;4952699;29;19914;-75
2023/07/21 13:22:55;;;;;;;;;;;25.70;75.10;;;;;;4952506;29;19942;-77
2023/07/21 13:25:21;;;;;;;;;;;25.50;75.00;;;;;;4952337;29;20035;-77
2023/07/21 13:27:48;;;;;;;;;;;25.50;75.30;;;;;;4953059;28;20268;-76
2023/07/21 13:30:14;;;;;;;;;;;25.50;75.50;;;;;;4948944;28;19990;-76
2023/07/21 13:32:39;;;;;;;;;;;25.50;75.50;;;;;;4958034;28;19914;-75
2023/07/21 13:35:05;;;;;;;;;;;25.80;75.90;;;;;;4943279;28;19959;-75
2023/07/21 13:37:31;;;;;;;;;;;26.00;75.60;;;;;;4957517;28;19919;-76
2023/07/21 13:39:56;;;;;;;;;;;26.10;75.50;;;;;;4937538;28;20279;-75
2023/07/21 13:42:23;;;;;;;;;;;26.20;75.40;;;;;;4957466;28;19918;-75
2023/07/21 13:44:48;;;;;;;;;;;26.20;75.20;;;;;;4949914;28;19986;-76
2023/07/21 13:47:14;;;;;;;;;;;26.20;75.00;;;;;;4960083;28;20384;-76
2023/07/21 13:49:40;;;;;;;;;;;26.00;74.70;;;;;;4963236;28;19914;-76
2023/07/21 13:52:06;;;;;;;;;;;25.70;74.50;;;;;;4963187;28;19911;-76
2023/07/21 13:54:32;;;;;;;;;;;25.30;74.40;;;;;;4943346;28;19911;-75
2023/07/21 13:56:58;;;;;;;;;;;24.90;74.50;;;;;;4960321;28;20567;-75
2023/07/21 13:59:24;;;;;;;;;;;24.60;74.70;;;;;;4945717;28;19914;-74
2023/07/21 14:01:50;;;;;;;;;;;24.50;75.00;;;;;;4963053;28;19916;-74
2023/07/21 14:04:16;;;;;;;;;;;24.50;75.20;;;;;;4934903;29;20201;-74
2023/07/21 14:06:42;;;;;;;;;;;24.60;75.10;;;;;;4952248;29;19922;-74
2023/07/21 14:09:07;;;;;;;;;;;24.50;74.80;;;;;;4951885;29;19918;-74
2023/07/21 14:11:34;;;;;;;;;;;24.30;74.90;;;;;;4951273;28;20436;-74
2023/07/21 14:13:59;;;;;;;;;;;24.40;75.20;;;;;;4933454;29;19919;-74